Stations météo

réclame
Mon MeteoGroup
Lampedusa, Italie (16490): Température de l'air & dewpoint: 05.12.2017 03:00:00 - 11.12.2017 03:00:00 (CET)Lampedusa, Italie (16490): Vitesse du vent: 05.12.2017 03:00:00 - 11.12.2017 03:00:00 (CET)Lampedusa, Italie (16490): Direction du vent: 05.12.2017 03:00:00 - 11.12.2017 03:00:00 (CET)Lampedusa, Italie (16490): visibility: 05.12.2017 03:00:00 - 11.12.2017 03:00:00 (CET)
Date & Time tt [°C] td [°C] ff [km/h] ff [knt] dd vv [km]
11.12.2017 03:00:00 - - - - - -
11.12.2017 02:00:00 - - - - - -
11.12.2017 01:00:00 - - - - - -
11.12.2017 00:00:00 - - - - - -
10.12.2017 23:00:00 - - - - - -
10.12.2017 22:00:00 16,0 10,0 24 13 S 10
10.12.2017 21:00:00 15,0 9,0 18 10 S 10
10.12.2017 20:00:00 15,0 8,0 18 10 S 10
10.12.2017 19:00:00 14,0 7,0 13 7 S 10
10.12.2017 18:00:00 14,0 6,0 9 5 SSW 10
10.12.2017 17:00:00 14,0 6,0 8 4 SW 10
10.12.2017 16:00:00 15,0 6,0 8 4 W 10
10.12.2017 15:00:00 15,0 6,0 11 6 NW 10
10.12.2017 14:00:00 15,0 6,0 13 7 NNW 10
10.12.2017 13:00:00 15,0 6,0 9 5 WNW 10
10.12.2017 12:00:00 15,0 6,0 15 8 NNW 10
10.12.2017 11:00:00 15,0 5,0 15 8 NNW 10
10.12.2017 10:00:00 15,0 5,0 15 8 NNW 10
10.12.2017 09:00:00 14,0 6,0 18 10 NNW 10
10.12.2017 08:00:00 14,0 5,0 21 11 NW 10
10.12.2017 07:00:00 13,0 5,0 15 8 NW 10
10.12.2017 06:00:00 14,0 5,0 21 11 NW 10
10.12.2017 05:00:00 - - - - - -
10.12.2017 04:00:00 - - - - - -
10.12.2017 03:00:00 - - - - - -
10.12.2017 02:00:00 - - - - - -
10.12.2017 01:00:00 - - - - - -
10.12.2017 00:00:00 - - - - - -
09.12.2017 23:00:00 - - - - - -
09.12.2017 22:00:00 15,0 9,0 15 8 NW 10
09.12.2017 21:00:00 15,0 9,0 21 11 NNW 10
09.12.2017 20:00:00 15,0 8,0 16 9 NW 10
09.12.2017 19:00:00 15,0 9,0 15 8 WNW 10
09.12.2017 18:00:00 - - - - - -
09.12.2017 17:00:00 16,0 8,0 21 11 WNW 10
09.12.2017 16:00:00 16,0 7,0 22 12 WNW 10
09.12.2017 15:00:00 17,0 7,0 26 14 W 10
09.12.2017 14:00:00 17,0 6,0 28 15 W 10
09.12.2017 13:00:00 16,0 6,0 34 18 W 10
09.12.2017 12:00:00 16,0 6,0 31 17 W 10
09.12.2017 11:00:00 16,0 7,0 34 18 WSW 10
09.12.2017 10:00:00 16,0 7,0 31 17 WSW 10
09.12.2017 09:00:00 16,0 7,0 29 16 WSW 10
09.12.2017 08:00:00 15,0 9,0 28 15 WSW 10
09.12.2017 07:00:00 15,0 10,0 26 14 WSW 10
09.12.2017 06:00:00 15,0 10,0 24 13 WSW 10
09.12.2017 05:00:00 - - - - - -
09.12.2017 04:00:00 - - - - - -
09.12.2017 03:00:00 - - - - - -
09.12.2017 02:00:00 - - - - - -
09.12.2017 01:00:00 - - - - - -
09.12.2017 00:00:00 - - - - - -
08.12.2017 23:00:00 - - - - - -
08.12.2017 22:00:00 14,0 6,0 15 8 WSW 10
08.12.2017 21:00:00 14,0 6,0 9 5 SW 10
08.12.2017 20:00:00 14,0 7,0 9 5 SW 10
08.12.2017 19:00:00 13,0 6,0 5 3 W 10
08.12.2017 18:00:00 14,0 6,0 5 3 SW 10
08.12.2017 17:00:00 14,0 6,0 5 3 SW 10
08.12.2017 16:00:00 16,0 7,0 11 6 SW 10
08.12.2017 15:00:00 16,0 7,0 8 4 SSW 10
08.12.2017 14:00:00 16,0 7,0 9 5 SW 10
08.12.2017 13:00:00 16,0 7,0 9 5 SW 10
08.12.2017 12:00:00 16,0 7,0 9 5 SW 10
08.12.2017 11:00:00 16,0 7,0 5 3 S 10
08.12.2017 10:00:00 15,0 8,0 4 2 W 10
08.12.2017 09:00:00 13,0 8,0 5 3 W 10
08.12.2017 08:00:00 12,0 7,0 5 3 W 10
08.12.2017 07:00:00 12,0 7,0 4 2 W 10
08.12.2017 06:00:00 12,0 6,0 5 3 W 10
08.12.2017 05:00:00 - - - - - -
08.12.2017 04:00:00 - - - - - -
08.12.2017 03:00:00 - - - - - -
08.12.2017 02:00:00 - - - - - -
08.12.2017 01:00:00 - - - - - -
08.12.2017 00:00:00 - - - - - -
07.12.2017 23:00:00 - - - - - -
07.12.2017 22:00:00 13,0 6,0 5 3 WNW 10
07.12.2017 21:00:00 13,0 6,0 4 2 WNW 10
07.12.2017 20:00:00 13,0 6,0 5 3 NW 10
07.12.2017 19:00:00 13,0 6,0 5 3 NNW 10
07.12.2017 18:00:00 14,0 6,0 8 4 NNW 10
07.12.2017 17:00:00 14,0 7,0 9 5 N 10
07.12.2017 16:00:00 15,0 7,0 8 4 N 10
07.12.2017 15:00:00 16,0 6,0 9 5 NNE 10
07.12.2017 14:00:00 16,0 6,0 8 4 NNE 10
07.12.2017 13:00:00 16,0 7,0 8 4 NE 10
07.12.2017 12:00:00 16,0 6,0 5 3 NNE 10
07.12.2017 11:00:00 16,0 6,0 5 3 N 10
07.12.2017 10:00:00 15,0 5,0 5 3 NE 10
07.12.2017 09:00:00 15,0 6,0 5 3 NNE 10
07.12.2017 08:00:00 14,0 6,0 8 4 NE 10
07.12.2017 07:00:00 14,0 7,0 9 5 NNE 10
07.12.2017 06:00:00 14,0 6,0 9 5 NNE 10
07.12.2017 05:00:00 - - - - - -
07.12.2017 04:00:00 - - - - - -
07.12.2017 03:00:00 - - - - - -
07.12.2017 02:00:00 - - - - - -
07.12.2017 01:00:00 - - - - - -
07.12.2017 00:00:00 - - - - - -
06.12.2017 23:00:00 - - - - - -
06.12.2017 22:00:00 - - - - - -
06.12.2017 21:00:00 15,0 6,0 9 5 ENE 10
06.12.2017 20:00:00 15,0 7,0 11 6 ENE 10
06.12.2017 19:00:00 15,0 6,0 15 8 ENE 10
06.12.2017 18:00:00 15,0 5,0 13 7 ENE 10
06.12.2017 17:00:00 15,0 5,0 11 6 ENE 10
06.12.2017 16:00:00 16,0 6,0 15 8 ENE 10
06.12.2017 15:00:00 16,0 6,0 15 8 NE 10
06.12.2017 14:00:00 16,0 4,0 11 6 NE 10
06.12.2017 13:00:00 16,0 5,0 15 8 NE 10
06.12.2017 12:00:00 16,0 4,0 16 9 NE 10
06.12.2017 11:00:00 16,0 5,0 22 12 NE 10
06.12.2017 10:00:00 15,0 5,0 18 10 NE 10
06.12.2017 09:00:00 15,0 4,0 24 13 NE 10
06.12.2017 08:00:00 15,0 5,0 18 10 NNE 10
06.12.2017 07:00:00 14,0 15,0 21 11 NNE 10
06.12.2017 06:00:00 14,0 4,0 16 9 NE 10
06.12.2017 05:00:00 - - - - - -
06.12.2017 04:00:00 - - - - - -
06.12.2017 03:00:00 - - - - - -
06.12.2017 02:00:00 - - - - - -
06.12.2017 01:00:00 - - - - - -
06.12.2017 00:00:00 - - - - - -
05.12.2017 23:00:00 - - - - - -
05.12.2017 22:00:00 15,0 7,0 22 12 N 10
05.12.2017 21:00:00 14,0 6,0 24 13 N 10
05.12.2017 20:00:00 - - - - - -
05.12.2017 19:00:00 14,0 5,0 22 12 N 10
05.12.2017 18:00:00 14,0 5,0 18 10 NNW 10
05.12.2017 17:00:00 14,0 5,0 18 10 NNW 10
05.12.2017 16:00:00 15,0 5,0 18 10 NNW 10
05.12.2017 15:00:00 15,0 6,0 22 12 N 10
05.12.2017 14:00:00 15,0 6,0 24 13 N 10
05.12.2017 13:00:00 15,0 7,0 28 15 N 10
05.12.2017 12:00:00 15,0 8,0 26 14 N 10
05.12.2017 11:00:00 15,0 8,0 28 15 NNW 10
05.12.2017 10:00:00 15,0 8,0 29 16 N 10
05.12.2017 09:00:00 14,0 9,0 22 12 NNW 10
05.12.2017 08:00:00 13,0 8,0 28 15 NNW 10
05.12.2017 07:00:00 14,0 8,0 26 14 N 10
05.12.2017 06:00:00 14,0 6,0 28 15 NNW 10
05.12.2017 05:00:00 - - - - - -
05.12.2017 04:00:00 - - - - - -
05.12.2017 03:00:00 - - - - - -

tt = Température de l'air
td = dewpoint
ff = Vitesse du vent
dd = Direction du vent
vv = visibility

stations d'obs. à proximité